createdAt,value
2022-10-21T00:00:56.952Z,29.90
2022-10-21T00:03:25.915Z,31.30
2022-10-21T00:05:54.827Z,29.80
2022-10-21T00:08:23.452Z,30.53
2022-10-21T00:10:54.052Z,26.87
2022-10-21T00:13:23.100Z,32.40
2022-10-21T00:16:00.109Z,25.17
2022-10-21T00:18:28.819Z,33.30
2022-10-21T00:20:57.548Z,35.70
2022-10-21T00:23:26.393Z,28.73
2022-10-21T00:25:59.022Z,27.13
2022-10-21T00:28:29.883Z,25.07
2022-10-21T00:30:58.931Z,31.17
2022-10-21T00:33:28.177Z,24.77
2022-10-21T00:35:57.535Z,23.80
2022-10-21T00:38:26.504Z,29.57
2022-10-21T00:40:55.109Z,25.13
2022-10-21T00:43:24.897Z,25.93
2022-10-21T00:45:54.939Z,22.27
2022-10-21T00:48:26.613Z,35.63
2022-10-21T00:50:56.770Z,26.37
2022-10-21T00:53:26.236Z,34.40
2022-10-21T00:55:57.102Z,31.30
2022-10-21T00:58:28.177Z,26.27
2022-10-21T01:00:58.030Z,28.73
2022-10-21T01:03:27.316Z,30.77
2022-10-21T01:05:56.353Z,28.67
2022-10-21T01:08:25.191Z,31.53
2022-10-21T01:10:53.961Z,25.90
2022-10-21T01:13:27.335Z,26.17
2022-10-21T01:16:03.523Z,22.70
2022-10-21T01:18:35.139Z,29.13
2022-10-21T01:21:15.175Z,26.73
2022-10-21T01:23:56.372Z,35.90
2022-10-21T01:26:39.909Z,24.20
2022-10-21T01:29:23.138Z,22.53
2022-10-21T01:31:57.806Z,32.47
2022-10-21T01:34:28.898Z,26.20
2022-10-21T01:36:59.440Z,23.50
2022-10-21T01:39:30.254Z,28.60
2022-10-21T01:42:03.975Z,33.70
2022-10-21T01:44:36.212Z,26.33
2022-10-21T01:47:09.063Z,28.90
2022-10-21T01:49:38.975Z,26.90
2022-10-21T01:52:07.719Z,28.90
2022-10-21T01:54:38.021Z,28.70
2022-10-21T01:57:08.367Z,31.37
2022-10-21T01:59:37.256Z,33.23
2022-10-21T02:02:08.108Z,31.93
2022-10-21T02:04:37.668Z,30.00
2022-10-21T02:07:06.297Z,21.53
2022-10-21T02:09:34.690Z,26.27
2022-10-21T02:12:04.779Z,22.40
2022-10-21T02:14:34.977Z,29.27
2022-10-21T02:17:03.728Z,23.03
2022-10-21T02:19:33.835Z,22.73
2022-10-21T02:22:04.503Z,30.00
2022-10-21T02:24:36.268Z,27.93
2022-10-21T02:27:04.971Z,24.23
2022-10-21T02:29:36.047Z,25.80
2022-10-21T02:32:07.719Z,26.70
2022-10-21T02:34:45.045Z,22.37
2022-10-21T02:37:17.924Z,22.60
2022-10-21T02:39:50.090Z,25.03
2022-10-21T02:42:21.739Z,22.50
2022-10-21T02:44:50.276Z,28.23
2022-10-21T02:47:18.794Z,23.03
2022-10-21T02:49:48.654Z,27.50
2022-10-21T02:52:17.095Z,32.13
2022-10-21T02:54:45.591Z,27.90
2022-10-21T02:57:14.543Z,30.73
2022-10-21T02:59:43.145Z,23.67
2022-10-21T03:02:11.626Z,21.27
2022-10-21T03:04:40.388Z,24.27
2022-10-21T03:07:10.218Z,33.10
2022-10-21T03:09:38.706Z,25.23
2022-10-21T03:12:07.256Z,31.93
2022-10-21T03:14:35.912Z,25.87
2022-10-21T03:17:07.563Z,26.10
2022-10-21T03:19:35.977Z,27.33
2022-10-21T03:22:04.730Z,20.73
2022-10-21T03:24:37.659Z,32.10
2022-10-21T03:27:06.217Z,27.93
2022-10-21T03:29:34.640Z,29.77
2022-10-21T03:32:03.389Z,35.97
2022-10-21T03:34:32.020Z,30.17
2022-10-21T03:37:00.551Z,28.60
2022-10-21T03:39:29.186Z,26.33
2022-10-21T03:41:59.008Z,25.47
2022-10-21T03:44:27.486Z,24.33
2022-10-21T03:46:56.117Z,21.97
2022-10-21T03:49:24.712Z,24.47
2022-10-21T03:51:53.312Z,18.77
2022-10-21T03:54:21.803Z,24.83
2022-10-21T03:56:50.485Z,23.33
2022-10-21T03:59:20.758Z,31.50
2022-10-21T04:01:49.554Z,32.97
2022-10-21T04:04:18.410Z,24.40
2022-10-21T04:06:46.989Z,30.73
2022-10-21T04:09:15.725Z,35.37
2022-10-21T04:11:44.524Z,33.77
2022-10-21T04:14:15.323Z,35.70
2022-10-21T04:16:53.566Z,30.37
2022-10-21T04:19:30.856Z,29.90
2022-10-21T04:21:59.351Z,34.73
2022-10-21T04:24:27.841Z,26.87
2022-10-21T04:26:56.707Z,23.67
2022-10-21T04:29:25.754Z,28.57
2022-10-21T04:34:29.500Z,29.67
2022-10-21T04:37:01.048Z,28.43
2022-10-21T04:39:32.835Z,29.17
2022-10-21T04:42:01.334Z,23.33
2022-10-21T04:44:29.827Z,29.70
2022-10-21T04:47:00.044Z,26.63
2022-10-21T04:49:28.562Z,24.60
2022-10-21T04:51:57.068Z,22.23
2022-10-21T04:54:25.642Z,23.33
2022-10-21T04:56:54.095Z,23.17
2022-10-21T04:59:22.625Z,29.70
2022-10-21T05:01:51.257Z,26.93
2022-10-21T05:04:21.422Z,21.50
2022-10-21T05:06:51.296Z,24.87
2022-10-21T05:09:19.943Z,24.50
2022-10-21T05:11:48.408Z,25.20
2022-10-21T05:14:20.017Z,23.40
2022-10-21T05:16:51.468Z,20.30
2022-10-21T05:19:21.351Z,23.90
2022-10-21T05:21:49.886Z,22.23
2022-10-21T05:24:18.727Z,25.20
2022-10-21T05:26:47.611Z,22.20
2022-10-21T05:29:16.534Z,23.73
2022-10-21T05:31:45.275Z,29.83
2022-10-21T05:34:15.042Z,21.43
2022-10-21T05:36:45.450Z,23.63
2022-10-21T05:39:14.033Z,26.93
2022-10-21T05:41:45.488Z,26.03
2022-10-21T05:44:16.790Z,33.23
2022-10-21T05:46:46.645Z,21.33
2022-10-21T05:49:16.512Z,23.33
2022-10-21T05:51:46.477Z,27.13
2022-10-21T05:54:15.227Z,34.27
2022-10-21T05:56:43.892Z,24.90
2022-10-21T05:59:12.398Z,26.10
2022-10-21T06:01:41.042Z,29.83
2022-10-21T06:04:09.654Z,23.30
2022-10-21T06:06:39.605Z,22.73
2022-10-21T06:09:09.565Z,19.70
2022-10-21T06:11:38.184Z,26.10
2022-10-21T06:14:07.539Z,23.47
2022-10-21T06:16:37.262Z,24.53
2022-10-21T06:19:06.210Z,20.43
2022-10-21T06:21:35.112Z,19.33
2022-10-21T06:24:03.839Z,17.63
2022-10-21T06:26:36.177Z,21.73
2022-10-21T06:29:05.613Z,24.73
2022-10-21T06:31:34.042Z,22.97
2022-10-21T06:34:02.613Z,25.20
2022-10-21T06:36:31.309Z,24.77
2022-10-21T06:39:00.135Z,23.10
2022-10-21T06:41:28.618Z,18.43
2022-10-21T06:43:58.478Z,18.00
2022-10-21T06:46:26.977Z,24.80
2022-10-21T06:48:55.387Z,29.40
2022-10-21T06:51:24.718Z,22.40
2022-10-21T06:53:54.196Z,23.63
2022-10-21T06:56:23.328Z,21.23
2022-10-21T06:58:52.670Z,26.17
2022-10-21T07:01:34.953Z,23.73
2022-10-21T07:04:11.400Z,23.40
2022-10-21T07:06:40.044Z,25.47
2022-10-21T07:09:09.241Z,21.47
2022-10-21T07:11:38.478Z,29.53
2022-10-21T07:14:07.633Z,30.00
2022-10-21T07:16:38.808Z,18.20
2022-10-21T07:19:07.842Z,24.03
2022-10-21T07:21:36.634Z,26.50
2022-10-21T07:24:05.098Z,16.57
2022-10-21T07:26:34.592Z,24.40
2022-10-21T07:29:03.298Z,23.90
2022-10-21T07:31:34.054Z,28.37
2022-10-21T07:36:40.050Z,23.13
2022-10-21T07:39:09.723Z,21.30
2022-10-21T07:41:39.709Z,27.07
2022-10-21T07:44:08.769Z,21.13
2022-10-21T07:46:38.866Z,27.77
2022-10-21T07:49:09.467Z,23.43
2022-10-21T07:51:38.359Z,22.47
2022-10-21T07:54:07.218Z,21.30
2022-10-21T07:56:36.684Z,21.67
2022-10-21T07:59:10.191Z,25.20
2022-10-21T08:01:44.335Z,22.33
2022-10-21T08:04:15.481Z,22.60
2022-10-21T08:06:44.508Z,19.20
2022-10-21T08:09:13.106Z,19.27
2022-10-21T08:11:42.048Z,21.87
2022-10-21T08:14:11.282Z,23.47
2022-10-21T08:16:39.773Z,20.70
2022-10-21T08:19:08.745Z,24.03
2022-10-21T08:21:39.952Z,20.27
2022-10-21T08:24:09.179Z,21.97
2022-10-21T08:26:37.853Z,16.13
2022-10-21T08:29:06.663Z,21.13
2022-10-21T08:31:35.064Z,17.23
2022-10-21T08:34:03.463Z,20.67
2022-10-21T08:36:31.860Z,18.50
2022-10-21T08:39:01.697Z,13.73
2022-10-21T08:41:55.068Z,16.30
2022-10-21T08:44:29.382Z,13.13
2022-10-21T08:47:00.151Z,15.27
2022-10-21T08:49:31.826Z,14.60
2022-10-21T08:52:03.361Z,16.57
2022-10-21T08:54:39.157Z,21.30
2022-10-21T08:57:07.611Z,19.50
2022-10-21T08:59:36.167Z,21.63
2022-10-21T09:02:15.856Z,21.33
2022-10-21T09:04:48.412Z,17.93
2022-10-21T09:07:20.188Z,24.47
2022-10-21T09:09:53.067Z,27.00
2022-10-21T09:12:25.846Z,21.27
2022-10-21T09:15:02.535Z,22.00
2022-10-21T09:17:48.099Z,22.80
2022-10-21T09:20:22.940Z,24.30
2022-10-21T09:22:57.212Z,21.10
2022-10-21T09:25:31.047Z,23.50
2022-10-21T09:28:00.081Z,21.03
2022-10-21T09:30:39.791Z,21.87
2022-10-21T09:33:13.516Z,22.87
2022-10-21T09:35:45.620Z,20.10
2022-10-21T09:38:16.744Z,27.60
2022-10-21T09:40:48.261Z,23.30
2022-10-21T09:43:18.683Z,19.30
2022-10-21T09:45:47.675Z,24.43
2022-10-21T09:48:25.284Z,23.73
2022-10-21T09:50:56.513Z,22.53
2022-10-21T09:53:28.455Z,23.57
2022-10-21T09:56:02.669Z,25.70
2022-10-21T09:58:32.476Z,26.37
2022-10-21T10:01:01.043Z,27.53
2022-10-21T10:03:34.167Z,25.43
2022-10-21T10:06:03.259Z,20.70
2022-10-21T10:08:34.077Z,20.37
2022-10-21T10:11:15.827Z,18.83
2022-10-21T10:13:45.621Z,24.70
2022-10-21T10:16:19.693Z,29.10
2022-10-21T10:18:48.146Z,20.93
2022-10-21T10:21:17.223Z,22.13
2022-10-21T10:23:46.982Z,20.27
2022-10-21T10:26:22.023Z,23.07
2022-10-21T10:28:52.289Z,16.20
2022-10-21T10:31:28.571Z,20.23
2022-10-21T10:33:59.623Z,21.37
2022-10-21T10:36:30.617Z,24.13
2022-10-21T10:38:59.860Z,20.77
2022-10-21T10:41:34.976Z,23.00
2022-10-21T10:44:04.506Z,22.43
2022-10-21T10:46:34.477Z,22.27
2022-10-21T10:49:06.583Z,16.30
2022-10-21T10:51:36.028Z,17.40
2022-10-21T10:54:16.154Z,15.70
2022-10-21T10:56:49.085Z,18.47
2022-10-21T10:59:24.942Z,19.63
2022-10-21T11:01:56.103Z,17.73
2022-10-21T11:04:27.710Z,21.83
2022-10-21T11:06:58.552Z,14.63
2022-10-21T11:09:27.627Z,17.30
2022-10-21T11:11:57.751Z,15.20
2022-10-21T11:14:26.525Z,18.25
2022-10-21T11:17:01.091Z,12.90
2022-10-21T11:19:32.429Z,16.77
2022-10-21T11:22:07.548Z,16.17
2022-10-21T11:24:45.520Z,18.38
2022-10-21T11:27:19.388Z,14.38
2022-10-21T11:29:52.251Z,16.30
2022-10-21T11:32:25.074Z,20.27
2022-10-21T11:35:01.682Z,10.90
2022-10-21T11:37:37.226Z,11.55
2022-10-21T11:40:12.823Z,13.80
2022-10-21T11:42:44.101Z,12.27
2022-10-21T11:45:23.606Z,14.55
2022-10-21T11:47:57.278Z,11.05
2022-10-21T11:50:29.252Z,8.82
2022-10-21T11:53:12.510Z,9.85
2022-10-21T11:55:45.034Z,9.63
2022-10-21T11:58:25.787Z,7.85
2022-10-21T12:00:59.180Z,9.15
2022-10-21T12:03:37.147Z,9.23
2022-10-21T12:06:13.033Z,8.75
2022-10-21T12:08:49.483Z,7.07
2022-10-21T12:11:24.812Z,6.05
2022-10-21T12:13:58.047Z,4.82
2022-10-21T12:16:29.439Z,3.63
2022-10-21T12:19:01.399Z,8.60
2022-10-21T12:21:32.131Z,6.30
2022-10-21T12:24:06.609Z,8.60
2022-10-21T12:26:41.445Z,10.43
2022-10-21T12:29:16.868Z,5.93
2022-10-21T12:31:47.791Z,6.25
2022-10-21T12:34:16.360Z,7.95
2022-10-21T12:36:49.436Z,4.63
2022-10-21T12:39:39.144Z,2.55
2022-10-21T12:42:12.799Z,4.13
2022-10-21T12:44:47.545Z,4.35
2022-10-21T12:47:29.820Z,4.78
2022-10-21T12:50:28.847Z,4.63
2022-10-21T12:53:28.555Z,3.45
2022-10-21T12:55:59.456Z,3.35
2022-10-21T12:58:37.769Z,4.90
2022-10-21T13:01:09.062Z,3.35
2022-10-21T13:03:52.329Z,3.10
2022-10-21T13:06:53.914Z,3.20
2022-10-21T13:09:38.565Z,2.95
2022-10-21T13:12:19.232Z,3.90
2022-10-21T13:14:49.142Z,4.53
2022-10-21T13:17:31.563Z,4.18
2022-10-21T13:20:34.084Z,2.28
2022-10-21T13:23:33.720Z,4.35
2022-10-21T13:26:28.053Z,2.65
2022-10-21T13:29:01.451Z,3.50
2022-10-21T13:31:30.680Z,5.10
2022-10-21T13:34:01.217Z,2.38
2022-10-21T13:36:40.283Z,2.88
2022-10-21T13:39:22.702Z,2.80
2022-10-21T13:42:01.763Z,5.35
2022-10-21T13:44:35.180Z,3.60
2022-10-21T13:47:27.140Z,3.15
2022-10-21T13:49:58.736Z,3.80
2022-10-21T13:52:30.753Z,4.60
2022-10-21T13:55:00.066Z,2.20
2022-10-21T13:57:31.943Z,4.03
2022-10-21T14:00:07.567Z,3.67
2022-10-21T14:02:35.796Z,2.92
2022-10-21T14:05:05.655Z,4.40
2022-10-21T14:07:34.003Z,2.03
2022-10-21T14:10:03.605Z,3.92
2022-10-21T14:12:35.191Z,5.18
2022-10-21T14:15:07.670Z,2.60
2022-10-21T14:17:39.827Z,2.72
2022-10-21T14:20:16.880Z,3.35
2022-10-21T14:22:50.155Z,4.45
2022-10-21T14:25:19.987Z,5.57
2022-10-21T14:27:50.982Z,2.58
2022-10-21T14:30:21.989Z,4.05
2022-10-21T14:32:51.858Z,4.82
2022-10-21T14:35:28.030Z,2.80
2022-10-21T14:37:57.943Z,4.97
2022-10-21T14:40:31.910Z,3.60
2022-10-21T14:43:02.205Z,5.07
2022-10-21T14:45:33.082Z,3.67
2022-10-21T14:48:10.559Z,2.40
2022-10-21T14:50:41.741Z,3.50
2022-10-21T14:53:18.601Z,3.40
2022-10-21T14:55:48.841Z,2.77
2022-10-21T14:58:23.166Z,4.93
2022-10-21T15:00:56.305Z,3.42
2022-10-21T15:03:42.240Z,3.07
2022-10-21T15:06:15.853Z,6.10
2022-10-21T15:08:46.292Z,3.60
2022-10-21T15:11:23.316Z,4.23
2022-10-21T15:14:06.215Z,4.87
2022-10-21T15:19:08.783Z,5.53
2022-10-21T15:21:39.886Z,4.13
2022-10-21T15:24:08.715Z,3.70
2022-10-21T15:26:38.293Z,4.97
2022-10-21T15:29:13.964Z,5.03
2022-10-21T15:31:42.523Z,6.53
2022-10-21T15:34:14.487Z,3.70
2022-10-21T15:36:45.073Z,4.57
2022-10-21T15:39:13.721Z,9.00
2022-10-21T15:41:42.424Z,2.60
2022-10-21T15:44:17.989Z,4.75
2022-10-21T15:46:47.248Z,6.47
2022-10-21T15:49:17.856Z,4.50
2022-10-21T15:51:47.993Z,3.23
2022-10-21T15:54:16.786Z,5.30
2022-10-21T15:56:46.326Z,6.20
2022-10-21T15:59:18.810Z,7.27
2022-10-21T16:01:47.619Z,7.10
2022-10-21T16:04:16.168Z,4.90
2022-10-21T16:06:48.173Z,4.77
2022-10-21T16:09:20.646Z,7.67
2022-10-21T16:11:59.067Z,7.10
2022-10-21T16:14:29.379Z,6.80
2022-10-21T16:16:58.612Z,6.67
2022-10-21T16:19:27.135Z,7.63
2022-10-21T16:21:55.703Z,7.93
2022-10-21T16:24:25.579Z,7.83
2022-10-21T16:26:54.032Z,9.33
2022-10-21T16:29:26.932Z,7.60
2022-10-21T16:31:55.601Z,8.50
2022-10-21T16:34:24.046Z,7.63
2022-10-21T16:36:52.580Z,6.97
2022-10-21T16:39:24.278Z,10.17
2022-10-21T16:41:54.366Z,9.00
2022-10-21T16:44:22.750Z,6.77
2022-10-21T16:46:52.239Z,8.17
2022-10-21T16:49:22.968Z,8.80
2022-10-21T16:51:52.803Z,6.83
2022-10-21T16:54:23.550Z,8.30
2022-10-21T16:56:54.900Z,5.83
2022-10-21T16:59:25.621Z,10.87
2022-10-21T17:01:54.152Z,7.27
2022-10-21T17:04:22.623Z,7.67
2022-10-21T17:06:51.100Z,8.80
2022-10-21T17:09:19.918Z,7.10
2022-10-21T17:11:48.388Z,5.50
2022-10-21T17:14:18.275Z,7.33
2022-10-21T17:16:48.286Z,8.77
2022-10-21T17:19:16.730Z,7.00
2022-10-21T17:21:45.627Z,6.67
2022-10-21T17:24:15.791Z,6.87
2022-10-21T17:26:44.478Z,7.00
2022-10-21T17:29:13.206Z,7.53
2022-10-21T17:31:42.369Z,6.97
2022-10-21T17:34:16.409Z,6.50
2022-10-21T17:36:44.838Z,9.03
2022-10-21T17:39:13.271Z,6.07
2022-10-21T17:41:41.839Z,7.77
2022-10-21T17:44:11.759Z,4.33
2022-10-21T17:46:40.221Z,5.97
2022-10-21T17:49:08.637Z,9.37
2022-10-21T17:51:38.474Z,9.13
2022-10-21T17:54:07.578Z,6.00
2022-10-21T17:56:36.156Z,5.60
2022-10-21T17:59:04.683Z,3.67
2022-10-21T18:01:33.249Z,5.10
2022-10-21T18:04:01.972Z,4.77
2022-10-21T18:06:30.553Z,7.50
2022-10-21T18:09:00.352Z,6.93
2022-10-21T18:11:29.711Z,5.80
2022-10-21T18:14:01.464Z,6.60
2022-10-21T18:16:29.935Z,5.30
2022-10-21T18:19:01.863Z,5.53
2022-10-21T18:21:32.267Z,4.77
2022-10-21T18:24:02.115Z,5.70
2022-10-21T18:26:31.562Z,5.63
2022-10-21T18:29:00.834Z,5.63
2022-10-21T18:31:30.077Z,5.83
2022-10-21T18:34:02.147Z,5.83
2022-10-21T18:36:30.756Z,7.60
2022-10-21T18:39:00.546Z,6.37
2022-10-21T18:41:30.650Z,4.83
2022-10-21T18:44:01.410Z,6.37
2022-10-21T18:46:30.171Z,4.57
2022-10-21T18:48:58.742Z,5.07
2022-10-21T18:51:27.213Z,6.33
2022-10-21T18:53:55.659Z,5.07
2022-10-21T18:56:25.847Z,6.23
2022-10-21T18:58:56.300Z,5.83
2022-10-21T19:01:25.441Z,6.63
2022-10-21T19:03:54.614Z,6.33
2022-10-21T19:06:31.881Z,5.73
2022-10-21T19:09:02.336Z,6.47
2022-10-21T19:11:31.239Z,5.80
2022-10-21T19:14:01.284Z,4.77
2022-10-21T19:16:30.044Z,5.90
2022-10-21T19:18:58.740Z,9.20
2022-10-21T19:21:27.649Z,4.50
2022-10-21T19:23:56.779Z,4.80
2022-10-21T19:26:25.227Z,4.00
2022-10-21T19:28:54.275Z,5.27
2022-10-21T19:31:24.733Z,5.50
2022-10-21T19:33:53.650Z,4.37
2022-10-21T19:36:22.166Z,9.03
2022-10-21T19:38:50.837Z,6.43
2022-10-21T19:41:20.585Z,8.60
2022-10-21T19:43:51.706Z,6.77
2022-10-21T19:46:23.651Z,7.00
2022-10-21T19:48:55.915Z,7.70
2022-10-21T19:51:25.275Z,7.73
2022-10-21T19:53:54.539Z,7.07
2022-10-21T19:56:25.712Z,7.93
2022-10-21T19:58:57.189Z,9.30
2022-10-21T20:01:26.607Z,6.80
2022-10-21T20:03:56.669Z,10.33
2022-10-21T20:06:26.220Z,5.73
2022-10-21T20:08:55.916Z,6.67
2022-10-21T20:11:24.653Z,10.00
2022-10-21T20:13:53.573Z,5.37
2022-10-21T20:16:23.183Z,4.83
2022-10-21T20:18:52.149Z,9.53
2022-10-21T20:21:22.919Z,5.93
2022-10-21T20:23:51.932Z,9.17
2022-10-21T20:26:20.375Z,7.00
2022-10-21T20:28:50.790Z,8.30
2022-10-21T20:31:19.708Z,5.23
2022-10-21T20:33:48.833Z,6.73
2022-10-21T20:36:18.341Z,7.67
2022-10-21T20:38:48.571Z,8.50
2022-10-21T20:41:18.170Z,9.30
2022-10-21T20:43:46.611Z,7.53
2022-10-21T20:46:15.542Z,8.23
2022-10-21T20:48:45.362Z,8.37
2022-10-21T20:51:15.731Z,7.77
2022-10-21T20:56:16.062Z,7.30
2022-10-21T20:58:44.756Z,12.40
2022-10-21T21:01:14.827Z,12.80
2022-10-21T21:03:43.358Z,10.00
2022-10-21T21:06:12.085Z,11.30
2022-10-21T21:08:49.038Z,6.87
2022-10-21T21:11:23.404Z,11.60
2022-10-21T21:13:51.816Z,6.97
2022-10-21T21:16:21.000Z,7.20
2022-10-21T21:18:52.445Z,8.37
2022-10-21T21:21:22.152Z,6.70
2022-10-21T21:23:50.634Z,5.83
2022-10-21T21:26:21.305Z,10.43
2022-10-21T21:28:51.798Z,8.07
2022-10-21T21:31:29.306Z,7.00
2022-10-21T21:34:06.768Z,6.83
2022-10-21T21:36:37.293Z,6.57
2022-10-21T21:39:06.677Z,6.37
2022-10-21T21:41:35.921Z,7.67
2022-10-21T21:44:06.062Z,6.80
2022-10-21T21:46:34.600Z,9.33
2022-10-21T21:49:06.525Z,5.27
2022-10-21T21:51:36.130Z,6.13
2022-10-21T21:54:05.324Z,6.20
2022-10-21T21:56:33.983Z,7.47
2022-10-21T21:59:02.791Z,4.20
2022-10-21T22:01:32.793Z,7.20
2022-10-21T22:04:01.786Z,7.30
2022-10-21T22:06:31.206Z,5.80
2022-10-21T22:08:59.909Z,6.70
2022-10-21T22:11:29.527Z,5.70
2022-10-21T22:13:57.936Z,6.70
2022-10-21T22:16:30.153Z,7.90
2022-10-21T22:19:01.832Z,6.03
2022-10-21T22:21:31.652Z,7.93
2022-10-21T22:24:00.043Z,6.63
2022-10-21T22:26:29.839Z,6.17
2022-10-21T22:28:58.618Z,5.40
2022-10-21T22:31:30.245Z,7.90
2022-10-21T22:34:01.514Z,7.57
2022-10-21T22:36:30.336Z,5.10
2022-10-21T22:38:58.777Z,12.37
2022-10-21T22:41:27.309Z,5.33
2022-10-21T22:43:55.713Z,6.27
2022-10-21T22:46:39.424Z,5.63
2022-10-21T22:49:11.439Z,6.03
2022-10-21T22:51:39.870Z,4.10
2022-10-21T22:54:19.142Z,7.50
2022-10-21T22:56:52.662Z,5.77
2022-10-21T22:59:21.137Z,8.17
2022-10-21T23:01:49.675Z,5.27
2022-10-21T23:04:19.456Z,6.67
2022-10-21T23:06:47.926Z,7.53
2022-10-21T23:09:16.498Z,7.03
2022-10-21T23:11:46.500Z,7.83
2022-10-21T23:14:17.977Z,10.33
2022-10-21T23:16:46.389Z,10.03
2022-10-21T23:19:14.755Z,12.20
2022-10-21T23:21:44.538Z,10.63
2022-10-21T23:24:13.020Z,6.00
2022-10-21T23:26:41.832Z,8.40
2022-10-21T23:29:10.243Z,4.87
2022-10-21T23:31:38.717Z,4.63
2022-10-21T23:34:07.159Z,6.07
2022-10-21T23:36:36.315Z,9.17
2022-10-21T23:39:06.144Z,6.30
2022-10-21T23:41:34.778Z,6.80
2022-10-21T23:44:03.151Z,6.00
2022-10-21T23:46:31.611Z,6.53
2022-10-21T23:49:00.052Z,5.03
2022-10-21T23:51:28.502Z,5.97
2022-10-21T23:53:56.907Z,4.07
2022-10-21T23:56:26.734Z,5.20
2022-10-21T23:58:55.150Z,6.07
